<?xml version="1.0" encoding="UTF-8" standalone="no" ?>
<gpx xmlns="http://www.topografix.com/GPX/1/1" xmlns:xsi="http://www.w3.org/2001/XMLSchema-instance" xsi:schemaLocation="http://www.topografix.com/GPX/1/1 http://www.topografix.com/GPX/1/1/gpx.xsd" version="1.1" creator="VisuGPX - https://www.visugpx.com">
  <metadata>
    <name>Circuits des charbonniers et vallée d'Avaugour</name>
    <desc><![CDATA[Allongement du circuit des charbonniers en suivant suffisamment le Tro Vras, pour pouvoir couper par le circuit de la vallée d\'Avaudour.]]></desc>
  </metadata>
  <trk>
    <name><![CDATA[Circuits des charbonniers et vallée d'Avaugour]]></name>
    <desc><![CDATA[<h1>OruxMaps</h1><br /><hr align="center" width="480" style="height: 2px; width: 517px"/><h2>Nom: loic seul charbonnier ++</h2><br /><p>Temps de départ: 09/14/2014 09:01</p><p>Temps d'arrivée: 09/14/2014 11:20</p><p>Distance: 12,3 km (02:19)</p><p>Temps déplacement: 01:46</p><p>Vitesse moyenne: 5,3 km/h</p><p>Vitesse moyenne: 6,9 km/h</p><p>Vitess Max.: 28,1 km/h</p><p>Altitude minimale: 114 m</p><p>Altitude maximale: 203 m</p><p>Vitesse d'élévation: 293,4 m/h</p><p>Vitesse de descente: -274,8 m/h</p><p>Gain Altitude: 281 m</p><p>Perte Altitude: -278 m</p><p>Temps d'élévation: 00:57</p><p>Temps de descente: 01:00</p><hr align="center" width="480" style="height: 2px; width: 517px"/>]]></desc>
    <trkseg>
      <trkpt lat="48.49531" lon="-3.11006">
        <ele>134.33</ele>
        <time>2014-09-14T07:01:02Z</time>
      </trkpt>
      <trkpt lat="48.49519" lon="-3.10982">
        <ele>138.37</ele>
        <time>2014-09-14T07:02:46Z</time>
      </trkpt>
      <trkpt lat="48.49512" lon="-3.10956">
        <ele>138.63</ele>
        <time>2014-09-14T07:02:57Z</time>
      </trkpt>
      <trkpt lat="48.49482" lon="-3.10882">
        <ele>136.3</ele>
        <time>2014-09-14T07:03:34Z</time>
      </trkpt>
      <trkpt lat="48.49481" lon="-3.10853">
        <ele>135.34</ele>
        <time>2014-09-14T07:03:47Z</time>
      </trkpt>
      <trkpt lat="48.49499" lon="-3.10797">
        <ele>138.59</ele>
        <time>2014-09-14T07:04:08Z</time>
      </trkpt>
      <trkpt lat="48.49499" lon="-3.10712">
        <ele>146.92</ele>
        <time>2014-09-14T07:04:52Z</time>
      </trkpt>
      <trkpt lat="48.49504" lon="-3.10686">
        <ele>148.65</ele>
        <time>2014-09-14T07:05:06Z</time>
      </trkpt>
      <trkpt lat="48.49512" lon="-3.1066">
        <ele>148.14</ele>
        <time>2014-09-14T07:05:18Z</time>
      </trkpt>
      <trkpt lat="48.49508" lon="-3.10604">
        <ele>147.85</ele>
        <time>2014-09-14T07:05:49Z</time>
      </trkpt>
      <trkpt lat="48.49512" lon="-3.10577">
        <ele>148.67</ele>
        <time>2014-09-14T07:06:00Z</time>
      </trkpt>
      <trkpt lat="48.49514" lon="-3.10548">
        <ele>150.03</ele>
        <time>2014-09-14T07:06:11Z</time>
      </trkpt>
      <trkpt lat="48.49519" lon="-3.1052">
        <ele>151.63</ele>
        <time>2014-09-14T07:06:25Z</time>
      </trkpt>
      <trkpt lat="48.49532" lon="-3.10498">
        <ele>151.44</ele>
        <time>2014-09-14T07:06:38Z</time>
      </trkpt>
      <trkpt lat="48.49562" lon="-3.10463">
        <ele>150.79</ele>
        <time>2014-09-14T07:07:06Z</time>
      </trkpt>
      <trkpt lat="48.49574" lon="-3.10442">
        <ele>153.08</ele>
        <time>2014-09-14T07:07:24Z</time>
      </trkpt>
      <trkpt lat="48.49584" lon="-3.10417">
        <ele>155.17</ele>
        <time>2014-09-14T07:07:39Z</time>
      </trkpt>
      <trkpt lat="48.496" lon="-3.10403">
        <ele>157.77</ele>
        <time>2014-09-14T07:07:52Z</time>
      </trkpt>
      <trkpt lat="48.49626" lon="-3.10363">
        <ele>161.42</ele>
        <time>2014-09-14T07:08:17Z</time>
      </trkpt>
      <trkpt lat="48.49647" lon="-3.10314">
        <ele>164.17</ele>
        <time>2014-09-14T07:08:42Z</time>
      </trkpt>
      <trkpt lat="48.4966" lon="-3.10293">
        <ele>163.03</ele>
        <time>2014-09-14T07:08:53Z</time>
      </trkpt>
      <trkpt lat="48.49663" lon="-3.10265">
        <ele>163.17</ele>
        <time>2014-09-14T07:09:07Z</time>
      </trkpt>
      <trkpt lat="48.49671" lon="-3.1024">
        <ele>163.43</ele>
        <time>2014-09-14T07:09:18Z</time>
      </trkpt>
      <trkpt lat="48.49665" lon="-3.10213">
        <ele>162.35</ele>
        <time>2014-09-14T07:09:29Z</time>
      </trkpt>
      <trkpt lat="48.49658" lon="-3.10157">
        <ele>160.84</ele>
        <time>2014-09-14T07:09:55Z</time>
      </trkpt>
      <trkpt lat="48.49664" lon="-3.10129">
        <ele>160.45</ele>
        <time>2014-09-14T07:10:09Z</time>
      </trkpt>
      <trkpt lat="48.49668" lon="-3.10048">
        <ele>162.57</ele>
        <time>2014-09-14T07:10:45Z</time>
      </trkpt>
      <trkpt lat="48.49658" lon="-3.10025">
        <ele>161.2</ele>
        <time>2014-09-14T07:10:56Z</time>
      </trkpt>
      <trkpt lat="48.49656" lon="-3.09998">
        <ele>160.59</ele>
        <time>2014-09-14T07:11:08Z</time>
      </trkpt>
      <trkpt lat="48.49659" lon="-3.0997">
        <ele>162.1</ele>
        <time>2014-09-14T07:11:21Z</time>
      </trkpt>
      <trkpt lat="48.49649" lon="-3.09946">
        <ele>162.01</ele>
        <time>2014-09-14T07:11:33Z</time>
      </trkpt>
      <trkpt lat="48.49646" lon="-3.09918">
        <ele>160.52</ele>
        <time>2014-09-14T07:11:56Z</time>
      </trkpt>
      <trkpt lat="48.49633" lon="-3.09896">
        <ele>158.46</ele>
        <time>2014-09-14T07:12:07Z</time>
      </trkpt>
      <trkpt lat="48.49624" lon="-3.09871">
        <ele>155.4</ele>
        <time>2014-09-14T07:12:19Z</time>
      </trkpt>
      <trkpt lat="48.49619" lon="-3.09844">
        <ele>154.41</ele>
        <time>2014-09-14T07:12:33Z</time>
      </trkpt>
      <trkpt lat="48.49607" lon="-3.09821">
        <ele>152.96</ele>
        <time>2014-09-14T07:12:49Z</time>
      </trkpt>
      <trkpt lat="48.49591" lon="-3.0977">
        <ele>149.91</ele>
        <time>2014-09-14T07:13:13Z</time>
      </trkpt>
      <trkpt lat="48.49591" lon="-3.09743">
        <ele>151.34</ele>
        <time>2014-09-14T07:13:23Z</time>
      </trkpt>
      <trkpt lat="48.49598" lon="-3.09717">
        <ele>153.52</ele>
        <time>2014-09-14T07:13:34Z</time>
      </trkpt>
      <trkpt lat="48.4961" lon="-3.09694">
        <ele>154.71</ele>
        <time>2014-09-14T07:13:52Z</time>
      </trkpt>
      <trkpt lat="48.49614" lon="-3.0961">
        <ele>159.98</ele>
        <time>2014-09-14T07:14:32Z</time>
      </trkpt>
      <trkpt lat="48.49618" lon="-3.09583">
        <ele>161.98</ele>
        <time>2014-09-14T07:14:42Z</time>
      </trkpt>
      <trkpt lat="48.49619" lon="-3.09554">
        <ele>162.69</ele>
        <time>2014-09-14T07:14:54Z</time>
      </trkpt>
      <trkpt lat="48.4963" lon="-3.09532">
        <ele>162.14</ele>
        <time>2014-09-14T07:15:05Z</time>
      </trkpt>
      <trkpt lat="48.49648" lon="-3.09524">
        <ele>164.71</ele>
        <time>2014-09-14T07:15:21Z</time>
      </trkpt>
      <trkpt lat="48.49657" lon="-3.09501">
        <ele>166.11</ele>
        <time>2014-09-14T07:15:32Z</time>
      </trkpt>
      <trkpt lat="48.49662" lon="-3.09473">
        <ele>166.9</ele>
        <time>2014-09-14T07:15:41Z</time>
      </trkpt>
      <trkpt lat="48.49673" lon="-3.09451">
        <ele>166.09</ele>
        <time>2014-09-14T07:15:56Z</time>
      </trkpt>
      <trkpt lat="48.49686" lon="-3.09431">
        <ele>164.43</ele>
        <time>2014-09-14T07:16:12Z</time>
      </trkpt>
      <trkpt lat="48.49701" lon="-3.09447">
        <ele>164.44</ele>
        <time>2014-09-14T07:16:28Z</time>
      </trkpt>
      <trkpt lat="48.49735" lon="-3.09465">
        <ele>161.95</ele>
        <time>2014-09-14T07:16:59Z</time>
      </trkpt>
      <trkpt lat="48.49753" lon="-3.09471">
        <ele>161.3</ele>
        <time>2014-09-14T07:17:10Z</time>
      </trkpt>
      <trkpt lat="48.49772" lon="-3.09468">
        <ele>159.98</ele>
        <time>2014-09-14T07:17:22Z</time>
      </trkpt>
      <trkpt lat="48.49789" lon="-3.09479">
        <ele>158.25</ele>
        <time>2014-09-14T07:17:36Z</time>
      </trkpt>
      <trkpt lat="48.49825" lon="-3.09489">
        <ele>158.86</ele>
        <time>2014-09-14T07:18:01Z</time>
      </trkpt>
      <trkpt lat="48.49842" lon="-3.095">
        <ele>159.41</ele>
        <time>2014-09-14T07:18:20Z</time>
      </trkpt>
      <trkpt lat="48.49853" lon="-3.09524">
        <ele>158.61</ele>
        <time>2014-09-14T07:18:36Z</time>
      </trkpt>
      <trkpt lat="48.49861" lon="-3.09549">
        <ele>156.96</ele>
        <time>2014-09-14T07:18:46Z</time>
      </trkpt>
      <trkpt lat="48.49891" lon="-3.09583">
        <ele>156.5</ele>
        <time>2014-09-14T07:19:17Z</time>
      </trkpt>
      <trkpt lat="48.49944" lon="-3.09616">
        <ele>150</ele>
        <time>2014-09-14T07:19:58Z</time>
      </trkpt>
      <trkpt lat="48.49987" lon="-3.09672">
        <ele>146.38</ele>
        <time>2014-09-14T07:20:41Z</time>
      </trkpt>
      <trkpt lat="48.50023" lon="-3.0969">
        <ele>142.65</ele>
        <time>2014-09-14T07:21:07Z</time>
      </trkpt>
      <trkpt lat="48.5004" lon="-3.09704">
        <ele>141.23</ele>
        <time>2014-09-14T07:21:23Z</time>
      </trkpt>
      <trkpt lat="48.50075" lon="-3.09721">
        <ele>141.82</ele>
        <time>2014-09-14T07:21:48Z</time>
      </trkpt>
      <trkpt lat="48.50093" lon="-3.09733">
        <ele>140.21</ele>
        <time>2014-09-14T07:22:02Z</time>
      </trkpt>
      <trkpt lat="48.50107" lon="-3.09753">
        <ele>137.61</ele>
        <time>2014-09-14T07:22:15Z</time>
      </trkpt>
      <trkpt lat="48.50124" lon="-3.09768">
        <ele>137.22</ele>
        <time>2014-09-14T07:22:28Z</time>
      </trkpt>
      <trkpt lat="48.50196" lon="-3.09802">
        <ele>136.47</ele>
        <time>2014-09-14T07:23:23Z</time>
      </trkpt>
      <trkpt lat="48.50213" lon="-3.09812">
        <ele>136.02</ele>
        <time>2014-09-14T07:23:36Z</time>
      </trkpt>
      <trkpt lat="48.50232" lon="-3.09817">
        <ele>135.1</ele>
        <time>2014-09-14T07:23:48Z</time>
      </trkpt>
      <trkpt lat="48.5025" lon="-3.09812">
        <ele>136.32</ele>
        <time>2014-09-14T07:24:01Z</time>
      </trkpt>
      <trkpt lat="48.50267" lon="-3.09801">
        <ele>137.99</ele>
        <time>2014-09-14T07:24:13Z</time>
      </trkpt>
      <trkpt lat="48.50271" lon="-3.09745">
        <ele>137.71</ele>
        <time>2014-09-14T07:24:40Z</time>
      </trkpt>
      <trkpt lat="48.50264" lon="-3.09662">
        <ele>132.93</ele>
        <time>2014-09-14T07:25:19Z</time>
      </trkpt>
      <trkpt lat="48.50259" lon="-3.09636">
        <ele>132.22</ele>
        <time>2014-09-14T07:25:31Z</time>
      </trkpt>
      <trkpt lat="48.50248" lon="-3.09614">
        <ele>132.04</ele>
        <time>2014-09-14T07:25:43Z</time>
      </trkpt>
      <trkpt lat="48.50233" lon="-3.09596">
        <ele>132.98</ele>
        <time>2014-09-14T07:26:04Z</time>
      </trkpt>
      <trkpt lat="48.50197" lon="-3.09583">
        <ele>131.4</ele>
        <time>2014-09-14T07:26:28Z</time>
      </trkpt>
      <trkpt lat="48.5018" lon="-3.09571">
        <ele>129.88</ele>
        <time>2014-09-14T07:26:45Z</time>
      </trkpt>
      <trkpt lat="48.50172" lon="-3.09543">
        <ele>131.08</ele>
        <time>2014-09-14T07:26:55Z</time>
      </trkpt>
      <trkpt lat="48.50172" lon="-3.09516">
        <ele>132.54</ele>
        <time>2014-09-14T07:27:04Z</time>
      </trkpt>
      <trkpt lat="48.50197" lon="-3.09474">
        <ele>134.53</ele>
        <time>2014-09-14T07:27:33Z</time>
      </trkpt>
      <trkpt lat="48.50231" lon="-3.0945">
        <ele>139.26</ele>
        <time>2014-09-14T07:28:00Z</time>
      </trkpt>
      <trkpt lat="48.5025" lon="-3.09447">
        <ele>142.02</ele>
        <time>2014-09-14T07:28:13Z</time>
      </trkpt>
      <trkpt lat="48.50299" lon="-3.09409">
        <ele>145.67</ele>
        <time>2014-09-14T07:28:57Z</time>
      </trkpt>
      <trkpt lat="48.50335" lon="-3.09402">
        <ele>145.36</ele>
        <time>2014-09-14T07:29:25Z</time>
      </trkpt>
      <trkpt lat="48.50352" lon="-3.09387">
        <ele>145.86</ele>
        <time>2014-09-14T07:29:32Z</time>
      </trkpt>
      <trkpt lat="48.50361" lon="-3.09362">
        <ele>145.76</ele>
        <time>2014-09-14T07:29:41Z</time>
      </trkpt>
      <trkpt lat="48.50357" lon="-3.09336">
        <ele>145.28</ele>
        <time>2014-09-14T07:29:55Z</time>
      </trkpt>
      <trkpt lat="48.50358" lon="-3.09308">
        <ele>143.47</ele>
        <time>2014-09-14T07:30:11Z</time>
      </trkpt>
      <trkpt lat="48.50354" lon="-3.09253">
        <ele>140.08</ele>
        <time>2014-09-14T07:30:40Z</time>
      </trkpt>
      <trkpt lat="48.50363" lon="-3.09198">
        <ele>137.4</ele>
        <time>2014-09-14T07:31:00Z</time>
      </trkpt>
      <trkpt lat="48.50369" lon="-3.0917">
        <ele>138.49</ele>
        <time>2014-09-14T07:31:13Z</time>
      </trkpt>
      <trkpt lat="48.50367" lon="-3.09143">
        <ele>141.23</ele>
        <time>2014-09-14T07:31:34Z</time>
      </trkpt>
      <trkpt lat="48.50351" lon="-3.09128">
        <ele>139.62</ele>
        <time>2014-09-14T07:31:47Z</time>
      </trkpt>
      <trkpt lat="48.50246" lon="-3.09077">
        <ele>134.42</ele>
        <time>2014-09-14T07:33:02Z</time>
      </trkpt>
      <trkpt lat="48.5023" lon="-3.0906">
        <ele>136.54</ele>
        <time>2014-09-14T07:33:15Z</time>
      </trkpt>
      <trkpt lat="48.50196" lon="-3.09033">
        <ele>140.83</ele>
        <time>2014-09-14T07:33:41Z</time>
      </trkpt>
      <trkpt lat="48.50158" lon="-3.09026">
        <ele>143.07</ele>
        <time>2014-09-14T07:34:12Z</time>
      </trkpt>
      <trkpt lat="48.50141" lon="-3.09015">
        <ele>141.19</ele>
        <time>2014-09-14T07:34:27Z</time>
      </trkpt>
      <trkpt lat="48.50104" lon="-3.09018">
        <ele>144.88</ele>
        <time>2014-09-14T07:34:53Z</time>
      </trkpt>
      <trkpt lat="48.50055" lon="-3.08983">
        <ele>144.77</ele>
        <time>2014-09-14T07:35:33Z</time>
      </trkpt>
      <trkpt lat="48.50036" lon="-3.08977">
        <ele>143.38</ele>
        <time>2014-09-14T07:35:46Z</time>
      </trkpt>
      <trkpt lat="48.50018" lon="-3.08974">
        <ele>142.09</ele>
        <time>2014-09-14T07:35:58Z</time>
      </trkpt>
      <trkpt lat="48.5" lon="-3.08977">
        <ele>142.47</ele>
        <time>2014-09-14T07:36:10Z</time>
      </trkpt>
      <trkpt lat="48.49964" lon="-3.08976">
        <ele>143.96</ele>
        <time>2014-09-14T07:36:37Z</time>
      </trkpt>
      <trkpt lat="48.49933" lon="-3.09009">
        <ele>144.36</ele>
        <time>2014-09-14T07:37:05Z</time>
      </trkpt>
      <trkpt lat="48.49924" lon="-3.09034">
        <ele>141.58</ele>
        <time>2014-09-14T07:37:20Z</time>
      </trkpt>
      <trkpt lat="48.49909" lon="-3.0905">
        <ele>140.88</ele>
        <time>2014-09-14T07:37:33Z</time>
      </trkpt>
      <trkpt lat="48.49868" lon="-3.0911">
        <ele>138.91</ele>
        <time>2014-09-14T07:38:11Z</time>
      </trkpt>
      <trkpt lat="48.49851" lon="-3.09119">
        <ele>142.69</ele>
        <time>2014-09-14T07:38:27Z</time>
      </trkpt>
      <trkpt lat="48.49833" lon="-3.09118">
        <ele>144.26</ele>
        <time>2014-09-14T07:38:38Z</time>
      </trkpt>
      <trkpt lat="48.49761" lon="-3.09148">
        <ele>149.16</ele>
        <time>2014-09-14T07:39:38Z</time>
      </trkpt>
      <trkpt lat="48.49742" lon="-3.09151">
        <ele>149.41</ele>
        <time>2014-09-14T07:39:49Z</time>
      </trkpt>
      <trkpt lat="48.49724" lon="-3.09159">
        <ele>151.06</ele>
        <time>2014-09-14T07:40:05Z</time>
      </trkpt>
      <trkpt lat="48.49705" lon="-3.0916">
        <ele>154.05</ele>
        <time>2014-09-14T07:40:17Z</time>
      </trkpt>
      <trkpt lat="48.49687" lon="-3.09165">
        <ele>155.63</ele>
        <time>2014-09-14T07:40:36Z</time>
      </trkpt>
      <trkpt lat="48.49668" lon="-3.09162">
        <ele>154.65</ele>
        <time>2014-09-14T07:40:53Z</time>
      </trkpt>
      <trkpt lat="48.4965" lon="-3.09165">
        <ele>152.61</ele>
        <time>2014-09-14T07:41:07Z</time>
      </trkpt>
      <trkpt lat="48.49592" lon="-3.09164">
        <ele>152.81</ele>
        <time>2014-09-14T07:41:39Z</time>
      </trkpt>
      <trkpt lat="48.4959" lon="-3.09136">
        <ele>153.47</ele>
        <time>2014-09-14T07:41:59Z</time>
      </trkpt>
      <trkpt lat="48.49608" lon="-3.09086">
        <ele>153.03</ele>
        <time>2014-09-14T07:42:26Z</time>
      </trkpt>
      <trkpt lat="48.4961" lon="-3.09">
        <ele>155.95</ele>
        <time>2014-09-14T07:43:08Z</time>
      </trkpt>
      <trkpt lat="48.49615" lon="-3.08972">
        <ele>155.4</ele>
        <time>2014-09-14T07:43:22Z</time>
      </trkpt>
      <trkpt lat="48.49629" lon="-3.08918">
        <ele>158.06</ele>
        <time>2014-09-14T07:43:48Z</time>
      </trkpt>
      <trkpt lat="48.49631" lon="-3.08889">
        <ele>158.44</ele>
        <time>2014-09-14T07:43:58Z</time>
      </trkpt>
      <trkpt lat="48.49638" lon="-3.08863">
        <ele>158.85</ele>
        <time>2014-09-14T07:44:08Z</time>
      </trkpt>
      <trkpt lat="48.49644" lon="-3.08808">
        <ele>161.88</ele>
        <time>2014-09-14T07:44:37Z</time>
      </trkpt>
      <trkpt lat="48.49657" lon="-3.08723">
        <ele>161.88</ele>
        <time>2014-09-14T07:45:19Z</time>
      </trkpt>
      <trkpt lat="48.4966" lon="-3.08669">
        <ele>163.22</ele>
        <time>2014-09-14T07:45:46Z</time>
      </trkpt>
      <trkpt lat="48.49666" lon="-3.08642">
        <ele>163.95</ele>
        <time>2014-09-14T07:45:58Z</time>
      </trkpt>
      <trkpt lat="48.49669" lon="-3.08613">
        <ele>164.29</ele>
        <time>2014-09-14T07:46:13Z</time>
      </trkpt>
      <trkpt lat="48.49682" lon="-3.08561">
        <ele>168.72</ele>
        <time>2014-09-14T07:46:40Z</time>
      </trkpt>
      <trkpt lat="48.49681" lon="-3.08534">
        <ele>170.64</ele>
        <time>2014-09-14T07:46:51Z</time>
      </trkpt>
      <trkpt lat="48.49685" lon="-3.08478">
        <ele>171.03</ele>
        <time>2014-09-14T07:47:18Z</time>
      </trkpt>
      <trkpt lat="48.49675" lon="-3.08453">
        <ele>168.91</ele>
        <time>2014-09-14T07:47:33Z</time>
      </trkpt>
      <trkpt lat="48.49661" lon="-3.08436">
        <ele>170.74</ele>
        <time>2014-09-14T07:47:49Z</time>
      </trkpt>
      <trkpt lat="48.49649" lon="-3.08413">
        <ele>171.16</ele>
        <time>2014-09-14T07:48:03Z</time>
      </trkpt>
      <trkpt lat="48.49634" lon="-3.08397">
        <ele>170.25</ele>
        <time>2014-09-14T07:48:11Z</time>
      </trkpt>
      <trkpt lat="48.49615" lon="-3.08396">
        <ele>170.64</ele>
        <time>2014-09-14T07:48:21Z</time>
      </trkpt>
      <trkpt lat="48.4958" lon="-3.08419">
        <ele>169.85</ele>
        <time>2014-09-14T07:48:44Z</time>
      </trkpt>
      <trkpt lat="48.49545" lon="-3.08435">
        <ele>165.31</ele>
        <time>2014-09-14T07:49:09Z</time>
      </trkpt>
      <trkpt lat="48.4951" lon="-3.08458">
        <ele>164.93</ele>
        <time>2014-09-14T07:49:36Z</time>
      </trkpt>
      <trkpt lat="48.49492" lon="-3.08463">
        <ele>165.23</ele>
        <time>2014-09-14T07:49:49Z</time>
      </trkpt>
      <trkpt lat="48.49473" lon="-3.08472">
        <ele>166.16</ele>
        <time>2014-09-14T07:50:05Z</time>
      </trkpt>
      <trkpt lat="48.49455" lon="-3.08477">
        <ele>166.56</ele>
        <time>2014-09-14T07:50:21Z</time>
      </trkpt>
      <trkpt lat="48.49437" lon="-3.08486">
        <ele>166.05</ele>
        <time>2014-09-14T07:50:36Z</time>
      </trkpt>
      <trkpt lat="48.49399" lon="-3.08477">
        <ele>162.37</ele>
        <time>2014-09-14T07:51:00Z</time>
      </trkpt>
      <trkpt lat="48.49381" lon="-3.08476">
        <ele>161.33</ele>
        <time>2014-09-14T07:51:10Z</time>
      </trkpt>
      <trkpt lat="48.49362" lon="-3.08482">
        <ele>160.76</ele>
        <time>2014-09-14T07:51:22Z</time>
      </trkpt>
      <trkpt lat="48.49342" lon="-3.08483">
        <ele>160.11</ele>
        <time>2014-09-14T07:51:35Z</time>
      </trkpt>
      <trkpt lat="48.49324" lon="-3.08487">
        <ele>159.92</ele>
        <time>2014-09-14T07:51:49Z</time>
      </trkpt>
      <trkpt lat="48.49306" lon="-3.08494">
        <ele>160</ele>
        <time>2014-09-14T07:52:05Z</time>
      </trkpt>
      <trkpt lat="48.49287" lon="-3.08493">
        <ele>160.8</ele>
        <time>2014-09-14T07:52:17Z</time>
      </trkpt>
      <trkpt lat="48.49269" lon="-3.08495">
        <ele>159.67</ele>
        <time>2014-09-14T07:52:33Z</time>
      </trkpt>
      <trkpt lat="48.49271" lon="-3.0841">
        <ele>159.25</ele>
        <time>2014-09-14T07:53:18Z</time>
      </trkpt>
      <trkpt lat="48.49265" lon="-3.08355">
        <ele>158.1</ele>
        <time>2014-09-14T07:53:44Z</time>
      </trkpt>
      <trkpt lat="48.49258" lon="-3.0833">
        <ele>158.4</ele>
        <time>2014-09-14T07:53:57Z</time>
      </trkpt>
      <trkpt lat="48.49247" lon="-3.08304">
        <ele>158</ele>
        <time>2014-09-14T07:54:09Z</time>
      </trkpt>
      <trkpt lat="48.49243" lon="-3.08248">
        <ele>159.4</ele>
        <time>2014-09-14T07:54:39Z</time>
      </trkpt>
      <trkpt lat="48.49229" lon="-3.08196">
        <ele>160.17</ele>
        <time>2014-09-14T07:55:05Z</time>
      </trkpt>
      <trkpt lat="48.49228" lon="-3.08167">
        <ele>160.06</ele>
        <time>2014-09-14T07:55:18Z</time>
      </trkpt>
      <trkpt lat="48.4922" lon="-3.08081">
        <ele>159.93</ele>
        <time>2014-09-14T07:55:54Z</time>
      </trkpt>
      <trkpt lat="48.49221" lon="-3.08053">
        <ele>159.04</ele>
        <time>2014-09-14T07:56:08Z</time>
      </trkpt>
      <trkpt lat="48.49219" lon="-3.08024">
        <ele>158.16</ele>
        <time>2014-09-14T07:56:20Z</time>
      </trkpt>
      <trkpt lat="48.49211" lon="-3.07998">
        <ele>158.46</ele>
        <time>2014-09-14T07:56:34Z</time>
      </trkpt>
      <trkpt lat="48.49209" lon="-3.07971">
        <ele>158.21</ele>
        <time>2014-09-14T07:56:49Z</time>
      </trkpt>
      <trkpt lat="48.49217" lon="-3.07945">
        <ele>159.16</ele>
        <time>2014-09-14T07:57:02Z</time>
      </trkpt>
      <trkpt lat="48.4922" lon="-3.07916">
        <ele>159.84</ele>
        <time>2014-09-14T07:57:13Z</time>
      </trkpt>
      <trkpt lat="48.49226" lon="-3.0789">
        <ele>160.74</ele>
        <time>2014-09-14T07:57:26Z</time>
      </trkpt>
      <trkpt lat="48.49234" lon="-3.07866">
        <ele>161.16</ele>
        <time>2014-09-14T07:57:40Z</time>
      </trkpt>
      <trkpt lat="48.49238" lon="-3.07839">
        <ele>161.42</ele>
        <time>2014-09-14T07:57:52Z</time>
      </trkpt>
      <trkpt lat="48.49234" lon="-3.07811">
        <ele>160.91</ele>
        <time>2014-09-14T07:58:06Z</time>
      </trkpt>
      <trkpt lat="48.49223" lon="-3.07789">
        <ele>160.97</ele>
        <time>2014-09-14T07:58:18Z</time>
      </trkpt>
      <trkpt lat="48.49223" lon="-3.0776">
        <ele>160.24</ele>
        <time>2014-09-14T07:58:30Z</time>
      </trkpt>
      <trkpt lat="48.49205" lon="-3.07755">
        <ele>161.35</ele>
        <time>2014-09-14T07:58:48Z</time>
      </trkpt>
      <trkpt lat="48.49187" lon="-3.07769">
        <ele>160.2</ele>
        <time>2014-09-14T07:59:01Z</time>
      </trkpt>
      <trkpt lat="48.4915" lon="-3.07785">
        <ele>159.98</ele>
        <time>2014-09-14T07:59:17Z</time>
      </trkpt>
      <trkpt lat="48.49132" lon="-3.07783">
        <ele>160.95</ele>
        <time>2014-09-14T07:59:36Z</time>
      </trkpt>
      <trkpt lat="48.49095" lon="-3.07796">
        <ele>157.8</ele>
        <time>2014-09-14T08:00:02Z</time>
      </trkpt>
      <trkpt lat="48.49079" lon="-3.07811">
        <ele>156.16</ele>
        <time>2014-09-14T08:00:13Z</time>
      </trkpt>
      <trkpt lat="48.49054" lon="-3.07853">
        <ele>151.56</ele>
        <time>2014-09-14T08:00:36Z</time>
      </trkpt>
      <trkpt lat="48.49043" lon="-3.07877">
        <ele>147.13</ele>
        <time>2014-09-14T08:00:53Z</time>
      </trkpt>
      <trkpt lat="48.49026" lon="-3.07886">
        <ele>143.68</ele>
        <time>2014-09-14T08:01:11Z</time>
      </trkpt>
      <trkpt lat="48.49011" lon="-3.07901">
        <ele>144.71</ele>
        <time>2014-09-14T08:01:27Z</time>
      </trkpt>
      <trkpt lat="48.49001" lon="-3.07924">
        <ele>146.32</ele>
        <time>2014-09-14T08:01:36Z</time>
      </trkpt>
      <trkpt lat="48.48989" lon="-3.07944">
        <ele>149.28</ele>
        <time>2014-09-14T08:01:51Z</time>
      </trkpt>
      <trkpt lat="48.48971" lon="-3.07956">
        <ele>151.88</ele>
        <time>2014-09-14T08:02:08Z</time>
      </trkpt>
      <trkpt lat="48.48936" lon="-3.07971">
        <ele>155.58</ele>
        <time>2014-09-14T08:02:41Z</time>
      </trkpt>
      <trkpt lat="48.48917" lon="-3.0797">
        <ele>156.49</ele>
        <time>2014-09-14T08:02:52Z</time>
      </trkpt>
      <trkpt lat="48.48907" lon="-3.07948">
        <ele>162.34</ele>
        <time>2014-09-14T08:03:20Z</time>
      </trkpt>
      <trkpt lat="48.48892" lon="-3.07931">
        <ele>164.56</ele>
        <time>2014-09-14T08:03:33Z</time>
      </trkpt>
      <trkpt lat="48.48879" lon="-3.0791">
        <ele>166.03</ele>
        <time>2014-09-14T08:03:53Z</time>
      </trkpt>
      <trkpt lat="48.48873" lon="-3.07885">
        <ele>163.5</ele>
        <time>2014-09-14T08:04:09Z</time>
      </trkpt>
      <trkpt lat="48.48864" lon="-3.07818">
        <ele>161.07</ele>
        <time>2014-09-14T08:04:39Z</time>
      </trkpt>
      <trkpt lat="48.48863" lon="-3.0776">
        <ele>162.87</ele>
        <time>2014-09-14T08:05:12Z</time>
      </trkpt>
      <trkpt lat="48.48857" lon="-3.07733">
        <ele>164.94</ele>
        <time>2014-09-14T08:05:23Z</time>
      </trkpt>
      <trkpt lat="48.48851" lon="-3.07676">
        <ele>168.91</ele>
        <time>2014-09-14T08:05:48Z</time>
      </trkpt>
      <trkpt lat="48.48855" lon="-3.07618">
        <ele>167.41</ele>
        <time>2014-09-14T08:06:22Z</time>
      </trkpt>
      <trkpt lat="48.48852" lon="-3.07591">
        <ele>165.79</ele>
        <time>2014-09-14T08:06:38Z</time>
      </trkpt>
      <trkpt lat="48.48826" lon="-3.07547">
        <ele>164.53</ele>
        <time>2014-09-14T08:07:09Z</time>
      </trkpt>
      <trkpt lat="48.48811" lon="-3.07531">
        <ele>164.56</ele>
        <time>2014-09-14T08:07:21Z</time>
      </trkpt>
      <trkpt lat="48.4876" lon="-3.07448">
        <ele>177.42</ele>
        <time>2014-09-14T08:08:16Z</time>
      </trkpt>
      <trkpt lat="48.48741" lon="-3.07445">
        <ele>177.59</ele>
        <time>2014-09-14T08:08:31Z</time>
      </trkpt>
      <trkpt lat="48.48723" lon="-3.0745">
        <ele>178.86</ele>
        <time>2014-09-14T08:08:42Z</time>
      </trkpt>
      <trkpt lat="48.4872" lon="-3.07478">
        <ele>181.12</ele>
        <time>2014-09-14T08:09:16Z</time>
      </trkpt>
      <trkpt lat="48.48711" lon="-3.07504">
        <ele>182.57</ele>
        <time>2014-09-14T08:09:48Z</time>
      </trkpt>
      <trkpt lat="48.48699" lon="-3.07559">
        <ele>186</ele>
        <time>2014-09-14T08:10:14Z</time>
      </trkpt>
      <trkpt lat="48.48712" lon="-3.0761">
        <ele>186.25</ele>
        <time>2014-09-14T08:10:37Z</time>
      </trkpt>
      <trkpt lat="48.4871" lon="-3.07698">
        <ele>184.57</ele>
        <time>2014-09-14T08:11:17Z</time>
      </trkpt>
      <trkpt lat="48.48701" lon="-3.07754">
        <ele>186.82</ele>
        <time>2014-09-14T08:11:42Z</time>
      </trkpt>
      <trkpt lat="48.48722" lon="-3.07799">
        <ele>188.18</ele>
        <time>2014-09-14T08:12:05Z</time>
      </trkpt>
      <trkpt lat="48.48717" lon="-3.07825">
        <ele>188.66</ele>
        <time>2014-09-14T08:12:19Z</time>
      </trkpt>
      <trkpt lat="48.48729" lon="-3.0788">
        <ele>190.11</ele>
        <time>2014-09-14T08:12:51Z</time>
      </trkpt>
      <trkpt lat="48.48738" lon="-3.07905">
        <ele>191.37</ele>
        <time>2014-09-14T08:13:03Z</time>
      </trkpt>
      <trkpt lat="48.4876" lon="-3.07952">
        <ele>193.63</ele>
        <time>2014-09-14T08:13:31Z</time>
      </trkpt>
      <trkpt lat="48.4879" lon="-3.07984">
        <ele>196.25</ele>
        <time>2014-09-14T08:13:59Z</time>
      </trkpt>
      <trkpt lat="48.48804" lon="-3.08003">
        <ele>196.89</ele>
        <time>2014-09-14T08:14:13Z</time>
      </trkpt>
      <trkpt lat="48.48816" lon="-3.08024">
        <ele>199.06</ele>
        <time>2014-09-14T08:14:28Z</time>
      </trkpt>
      <trkpt lat="48.48829" lon="-3.08075">
        <ele>201.94</ele>
        <time>2014-09-14T08:15:00Z</time>
      </trkpt>
      <trkpt lat="48.48832" lon="-3.08103">
        <ele>203.4</ele>
        <time>2014-09-14T08:15:15Z</time>
      </trkpt>
      <trkpt lat="48.48831" lon="-3.08131">
        <ele>202.38</ele>
        <time>2014-09-14T08:15:28Z</time>
      </trkpt>
      <trkpt lat="48.48828" lon="-3.08158">
        <ele>201</ele>
        <time>2014-09-14T08:15:42Z</time>
      </trkpt>
      <trkpt lat="48.48829" lon="-3.08188">
        <ele>198.45</ele>
        <time>2014-09-14T08:16:00Z</time>
      </trkpt>
      <trkpt lat="48.48812" lon="-3.08299">
        <ele>194.63</ele>
        <time>2014-09-14T08:16:50Z</time>
      </trkpt>
      <trkpt lat="48.48803" lon="-3.08324">
        <ele>193.45</ele>
        <time>2014-09-14T08:17:04Z</time>
      </trkpt>
      <trkpt lat="48.48791" lon="-3.08344">
        <ele>192.73</ele>
        <time>2014-09-14T08:17:16Z</time>
      </trkpt>
      <trkpt lat="48.4872" lon="-3.08382">
        <ele>189.44</ele>
        <time>2014-09-14T08:18:10Z</time>
      </trkpt>
      <trkpt lat="48.48701" lon="-3.08379">
        <ele>189.03</ele>
        <time>2014-09-14T08:18:23Z</time>
      </trkpt>
      <trkpt lat="48.48683" lon="-3.08379">
        <ele>188.75</ele>
        <time>2014-09-14T08:18:37Z</time>
      </trkpt>
      <trkpt lat="48.48677" lon="-3.08405">
        <ele>188.03</ele>
        <time>2014-09-14T08:18:52Z</time>
      </trkpt>
      <trkpt lat="48.48671" lon="-3.08461">
        <ele>186.26</ele>
        <time>2014-09-14T08:19:16Z</time>
      </trkpt>
      <trkpt lat="48.48653" lon="-3.08511">
        <ele>184.62</ele>
        <time>2014-09-14T08:19:41Z</time>
      </trkpt>
      <trkpt lat="48.48651" lon="-3.08538">
        <ele>183.27</ele>
        <time>2014-09-14T08:19:56Z</time>
      </trkpt>
      <trkpt lat="48.4867" lon="-3.08586">
        <ele>178.94</ele>
        <time>2014-09-14T08:20:22Z</time>
      </trkpt>
      <trkpt lat="48.48695" lon="-3.08628">
        <ele>174.97</ele>
        <time>2014-09-14T08:20:51Z</time>
      </trkpt>
      <trkpt lat="48.48692" lon="-3.08655">
        <ele>174.16</ele>
        <time>2014-09-14T08:21:02Z</time>
      </trkpt>
      <trkpt lat="48.48709" lon="-3.08669">
        <ele>171.33</ele>
        <time>2014-09-14T08:21:22Z</time>
      </trkpt>
      <trkpt lat="48.48727" lon="-3.08675">
        <ele>170.39</ele>
        <time>2014-09-14T08:21:34Z</time>
      </trkpt>
      <trkpt lat="48.48745" lon="-3.08677">
        <ele>170.59</ele>
        <time>2014-09-14T08:21:47Z</time>
      </trkpt>
      <trkpt lat="48.48783" lon="-3.08669">
        <ele>166.74</ele>
        <time>2014-09-14T08:22:14Z</time>
      </trkpt>
      <trkpt lat="48.48787" lon="-3.08697">
        <ele>160.68</ele>
        <time>2014-09-14T08:22:44Z</time>
      </trkpt>
      <trkpt lat="48.48779" lon="-3.08724">
        <ele>159.6</ele>
        <time>2014-09-14T08:23:00Z</time>
      </trkpt>
      <trkpt lat="48.48775" lon="-3.0878">
        <ele>154.65</ele>
        <time>2014-09-14T08:23:31Z</time>
      </trkpt>
      <trkpt lat="48.48768" lon="-3.08805">
        <ele>151.38</ele>
        <time>2014-09-14T08:23:46Z</time>
      </trkpt>
      <trkpt lat="48.48766" lon="-3.08834">
        <ele>149.71</ele>
        <time>2014-09-14T08:23:58Z</time>
      </trkpt>
      <trkpt lat="48.48758" lon="-3.0889">
        <ele>147.7</ele>
        <time>2014-09-14T08:24:20Z</time>
      </trkpt>
      <trkpt lat="48.48752" lon="-3.08975">
        <ele>142.06</ele>
        <time>2014-09-14T08:25:00Z</time>
      </trkpt>
      <trkpt lat="48.48745" lon="-3.09002">
        <ele>142.47</ele>
        <time>2014-09-14T08:25:14Z</time>
      </trkpt>
      <trkpt lat="48.48741" lon="-3.09029">
        <ele>141.75</ele>
        <time>2014-09-14T08:25:27Z</time>
      </trkpt>
      <trkpt lat="48.48729" lon="-3.09083">
        <ele>139.67</ele>
        <time>2014-09-14T08:25:57Z</time>
      </trkpt>
      <trkpt lat="48.48719" lon="-3.09106">
        <ele>138.55</ele>
        <time>2014-09-14T08:26:06Z</time>
      </trkpt>
      <trkpt lat="48.48712" lon="-3.09162">
        <ele>134.08</ele>
        <time>2014-09-14T08:26:36Z</time>
      </trkpt>
      <trkpt lat="48.48698" lon="-3.09216">
        <ele>131.88</ele>
        <time>2014-09-14T08:26:59Z</time>
      </trkpt>
      <trkpt lat="48.48685" lon="-3.09298">
        <ele>133.79</ele>
        <time>2014-09-14T08:27:34Z</time>
      </trkpt>
      <trkpt lat="48.48672" lon="-3.09353">
        <ele>134.91</ele>
        <time>2014-09-14T08:28:08Z</time>
      </trkpt>
      <trkpt lat="48.48662" lon="-3.09376">
        <ele>135.28</ele>
        <time>2014-09-14T08:28:22Z</time>
      </trkpt>
      <trkpt lat="48.48654" lon="-3.09401">
        <ele>136.96</ele>
        <time>2014-09-14T08:28:32Z</time>
      </trkpt>
      <trkpt lat="48.48644" lon="-3.09456">
        <ele>141.72</ele>
        <time>2014-09-14T08:28:58Z</time>
      </trkpt>
      <trkpt lat="48.48646" lon="-3.09484">
        <ele>143.28</ele>
        <time>2014-09-14T08:29:08Z</time>
      </trkpt>
      <trkpt lat="48.48637" lon="-3.09507">
        <ele>143.24</ele>
        <time>2014-09-14T08:29:19Z</time>
      </trkpt>
      <trkpt lat="48.48626" lon="-3.0956">
        <ele>138.7</ele>
        <time>2014-09-14T08:29:45Z</time>
      </trkpt>
      <trkpt lat="48.48614" lon="-3.09581">
        <ele>138.19</ele>
        <time>2014-09-14T08:30:01Z</time>
      </trkpt>
      <trkpt lat="48.48584" lon="-3.09616">
        <ele>140.4</ele>
        <time>2014-09-14T08:30:26Z</time>
      </trkpt>
      <trkpt lat="48.48575" lon="-3.09639">
        <ele>141.61</ele>
        <time>2014-09-14T08:30:44Z</time>
      </trkpt>
      <trkpt lat="48.48557" lon="-3.09648">
        <ele>143.15</ele>
        <time>2014-09-14T08:30:54Z</time>
      </trkpt>
      <trkpt lat="48.48544" lon="-3.09669">
        <ele>143.12</ele>
        <time>2014-09-14T08:31:10Z</time>
      </trkpt>
      <trkpt lat="48.4853" lon="-3.09686">
        <ele>143.99</ele>
        <time>2014-09-14T08:31:24Z</time>
      </trkpt>
      <trkpt lat="48.48517" lon="-3.09706">
        <ele>147.01</ele>
        <time>2014-09-14T08:31:38Z</time>
      </trkpt>
      <trkpt lat="48.4851" lon="-3.09734">
        <ele>148.64</ele>
        <time>2014-09-14T08:31:48Z</time>
      </trkpt>
      <trkpt lat="48.48513" lon="-3.09763">
        <ele>149.82</ele>
        <time>2014-09-14T08:32:00Z</time>
      </trkpt>
      <trkpt lat="48.48513" lon="-3.09791">
        <ele>149.47</ele>
        <time>2014-09-14T08:32:11Z</time>
      </trkpt>
      <trkpt lat="48.48518" lon="-3.09818">
        <ele>146.89</ele>
        <time>2014-09-14T08:32:25Z</time>
      </trkpt>
      <trkpt lat="48.48529" lon="-3.0984">
        <ele>146.27</ele>
        <time>2014-09-14T08:32:38Z</time>
      </trkpt>
      <trkpt lat="48.4856" lon="-3.09871">
        <ele>143.67</ele>
        <time>2014-09-14T08:33:04Z</time>
      </trkpt>
      <trkpt lat="48.48574" lon="-3.0989">
        <ele>141.59</ele>
        <time>2014-09-14T08:33:21Z</time>
      </trkpt>
      <trkpt lat="48.48625" lon="-3.09926">
        <ele>136.74</ele>
        <time>2014-09-14T08:34:13Z</time>
      </trkpt>
      <trkpt lat="48.48632" lon="-3.09953">
        <ele>134.22</ele>
        <time>2014-09-14T08:34:31Z</time>
      </trkpt>
      <trkpt lat="48.48642" lon="-3.09978">
        <ele>133.01</ele>
        <time>2014-09-14T08:34:45Z</time>
      </trkpt>
      <trkpt lat="48.48644" lon="-3.10006">
        <ele>132.16</ele>
        <time>2014-09-14T08:35:03Z</time>
      </trkpt>
      <trkpt lat="48.48658" lon="-3.10086">
        <ele>126.63</ele>
        <time>2014-09-14T08:35:43Z</time>
      </trkpt>
      <trkpt lat="48.48666" lon="-3.10114">
        <ele>124.14</ele>
        <time>2014-09-14T08:35:59Z</time>
      </trkpt>
      <trkpt lat="48.48668" lon="-3.10141">
        <ele>122.57</ele>
        <time>2014-09-14T08:36:11Z</time>
      </trkpt>
      <trkpt lat="48.48673" lon="-3.10168">
        <ele>123.91</ele>
        <time>2014-09-14T08:36:39Z</time>
      </trkpt>
      <trkpt lat="48.48672" lon="-3.10196">
        <ele>126.18</ele>
        <time>2014-09-14T08:36:50Z</time>
      </trkpt>
      <trkpt lat="48.4869" lon="-3.1021">
        <ele>125.96</ele>
        <time>2014-09-14T08:37:18Z</time>
      </trkpt>
      <trkpt lat="48.48708" lon="-3.10204">
        <ele>122.95</ele>
        <time>2014-09-14T08:37:31Z</time>
      </trkpt>
      <trkpt lat="48.48723" lon="-3.10187">
        <ele>118.42</ele>
        <time>2014-09-14T08:37:43Z</time>
      </trkpt>
      <trkpt lat="48.48735" lon="-3.10167">
        <ele>116.96</ele>
        <time>2014-09-14T08:37:50Z</time>
      </trkpt>
      <trkpt lat="48.48751" lon="-3.10154">
        <ele>114.65</ele>
        <time>2014-09-14T08:38:01Z</time>
      </trkpt>
      <trkpt lat="48.48763" lon="-3.10132">
        <ele>124.69</ele>
        <time>2014-09-14T08:39:09Z</time>
      </trkpt>
      <trkpt lat="48.48764" lon="-3.10104">
        <ele>124.87</ele>
        <time>2014-09-14T08:40:01Z</time>
      </trkpt>
      <trkpt lat="48.48752" lon="-3.09979">
        <ele>130</ele>
        <time>2014-09-14T08:41:03Z</time>
      </trkpt>
      <trkpt lat="48.48771" lon="-3.09869">
        <ele>127.39</ele>
        <time>2014-09-14T08:41:57Z</time>
      </trkpt>
      <trkpt lat="48.48779" lon="-3.09844">
        <ele>126.42</ele>
        <time>2014-09-14T08:42:10Z</time>
      </trkpt>
      <trkpt lat="48.48777" lon="-3.09816">
        <ele>126.18</ele>
        <time>2014-09-14T08:42:22Z</time>
      </trkpt>
      <trkpt lat="48.48769" lon="-3.0976">
        <ele>130.37</ele>
        <time>2014-09-14T08:42:43Z</time>
      </trkpt>
      <trkpt lat="48.48756" lon="-3.09649">
        <ele>142.87</ele>
        <time>2014-09-14T08:43:40Z</time>
      </trkpt>
      <trkpt lat="48.48746" lon="-3.09627">
        <ele>142.22</ele>
        <time>2014-09-14T08:43:52Z</time>
      </trkpt>
      <trkpt lat="48.48741" lon="-3.096">
        <ele>139.17</ele>
        <time>2014-09-14T08:44:07Z</time>
      </trkpt>
      <trkpt lat="48.48722" lon="-3.09551">
        <ele>134.83</ele>
        <time>2014-09-14T08:44:33Z</time>
      </trkpt>
      <trkpt lat="48.48717" lon="-3.09524">
        <ele>132.11</ele>
        <time>2014-09-14T08:44:46Z</time>
      </trkpt>
      <trkpt lat="48.48716" lon="-3.09495">
        <ele>130.14</ele>
        <time>2014-09-14T08:44:58Z</time>
      </trkpt>
      <trkpt lat="48.48718" lon="-3.09439">
        <ele>128.73</ele>
        <time>2014-09-14T08:45:21Z</time>
      </trkpt>
      <trkpt lat="48.48716" lon="-3.09381">
        <ele>130.46</ele>
        <time>2014-09-14T08:45:47Z</time>
      </trkpt>
      <trkpt lat="48.4872" lon="-3.09353">
        <ele>131.34</ele>
        <time>2014-09-14T08:46:01Z</time>
      </trkpt>
      <trkpt lat="48.48743" lon="-3.09276">
        <ele>132.34</ele>
        <time>2014-09-14T08:46:41Z</time>
      </trkpt>
      <trkpt lat="48.48748" lon="-3.0925">
        <ele>132.42</ele>
        <time>2014-09-14T08:46:52Z</time>
      </trkpt>
      <trkpt lat="48.48765" lon="-3.09198">
        <ele>128.83</ele>
        <time>2014-09-14T08:47:23Z</time>
      </trkpt>
      <trkpt lat="48.48771" lon="-3.09171">
        <ele>128.51</ele>
        <time>2014-09-14T08:47:38Z</time>
      </trkpt>
      <trkpt lat="48.48774" lon="-3.09143">
        <ele>128.07</ele>
        <time>2014-09-14T08:47:51Z</time>
      </trkpt>
      <trkpt lat="48.4878" lon="-3.09117">
        <ele>128.57</ele>
        <time>2014-09-14T08:48:04Z</time>
      </trkpt>
      <trkpt lat="48.48789" lon="-3.09063">
        <ele>131.29</ele>
        <time>2014-09-14T08:48:28Z</time>
      </trkpt>
      <trkpt lat="48.48796" lon="-3.09036">
        <ele>131.27</ele>
        <time>2014-09-14T08:48:44Z</time>
      </trkpt>
      <trkpt lat="48.48814" lon="-3.08987">
        <ele>130.07</ele>
        <time>2014-09-14T08:49:13Z</time>
      </trkpt>
      <trkpt lat="48.48845" lon="-3.08918">
        <ele>130.38</ele>
        <time>2014-09-14T08:49:54Z</time>
      </trkpt>
      <trkpt lat="48.48859" lon="-3.089">
        <ele>132.25</ele>
        <time>2014-09-14T08:50:08Z</time>
      </trkpt>
      <trkpt lat="48.48896" lon="-3.08914">
        <ele>140.59</ele>
        <time>2014-09-14T08:50:37Z</time>
      </trkpt>
      <trkpt lat="48.48911" lon="-3.0893">
        <ele>144.89</ele>
        <time>2014-09-14T08:51:00Z</time>
      </trkpt>
      <trkpt lat="48.48931" lon="-3.08943">
        <ele>146.46</ele>
        <time>2014-09-14T08:51:14Z</time>
      </trkpt>
      <trkpt lat="48.49004" lon="-3.08955">
        <ele>150.63</ele>
        <time>2014-09-14T08:51:52Z</time>
      </trkpt>
      <trkpt lat="48.49022" lon="-3.08962">
        <ele>149.9</ele>
        <time>2014-09-14T08:52:08Z</time>
      </trkpt>
      <trkpt lat="48.49037" lon="-3.08977">
        <ele>150.08</ele>
        <time>2014-09-14T08:52:19Z</time>
      </trkpt>
      <trkpt lat="48.49055" lon="-3.08984">
        <ele>151.96</ele>
        <time>2014-09-14T08:52:33Z</time>
      </trkpt>
      <trkpt lat="48.49089" lon="-3.09004">
        <ele>151.91</ele>
        <time>2014-09-14T08:53:05Z</time>
      </trkpt>
      <trkpt lat="48.49144" lon="-3.09017">
        <ele>156.25</ele>
        <time>2014-09-14T08:53:41Z</time>
      </trkpt>
      <trkpt lat="48.49158" lon="-3.09036">
        <ele>157.86</ele>
        <time>2014-09-14T08:53:56Z</time>
      </trkpt>
      <trkpt lat="48.49193" lon="-3.09058">
        <ele>155.22</ele>
        <time>2014-09-14T08:54:25Z</time>
      </trkpt>
      <trkpt lat="48.49229" lon="-3.09072">
        <ele>155.02</ele>
        <time>2014-09-14T08:54:52Z</time>
      </trkpt>
      <trkpt lat="48.49248" lon="-3.09076">
        <ele>157.71</ele>
        <time>2014-09-14T08:55:04Z</time>
      </trkpt>
      <trkpt lat="48.49277" lon="-3.09108">
        <ele>160.64</ele>
        <time>2014-09-14T08:55:33Z</time>
      </trkpt>
      <trkpt lat="48.49314" lon="-3.09114">
        <ele>157.51</ele>
        <time>2014-09-14T08:55:57Z</time>
      </trkpt>
      <trkpt lat="48.49343" lon="-3.09149">
        <ele>158.48</ele>
        <time>2014-09-14T08:56:42Z</time>
      </trkpt>
      <trkpt lat="48.49338" lon="-3.09175">
        <ele>160.56</ele>
        <time>2014-09-14T08:56:56Z</time>
      </trkpt>
      <trkpt lat="48.49326" lon="-3.09196">
        <ele>163.53</ele>
        <time>2014-09-14T08:57:07Z</time>
      </trkpt>
      <trkpt lat="48.4932" lon="-3.09222">
        <ele>164.78</ele>
        <time>2014-09-14T08:57:18Z</time>
      </trkpt>
      <trkpt lat="48.49266" lon="-3.09301">
        <ele>168.53</ele>
        <time>2014-09-14T08:58:06Z</time>
      </trkpt>
      <trkpt lat="48.49251" lon="-3.09317">
        <ele>167.68</ele>
        <time>2014-09-14T08:58:21Z</time>
      </trkpt>
      <trkpt lat="48.49242" lon="-3.09341">
        <ele>165.29</ele>
        <time>2014-09-14T08:58:35Z</time>
      </trkpt>
      <trkpt lat="48.49232" lon="-3.09427">
        <ele>159.5</ele>
        <time>2014-09-14T08:59:15Z</time>
      </trkpt>
      <trkpt lat="48.49212" lon="-3.09505">
        <ele>157.48</ele>
        <time>2014-09-14T08:59:55Z</time>
      </trkpt>
      <trkpt lat="48.49208" lon="-3.0956">
        <ele>160.25</ele>
        <time>2014-09-14T09:00:24Z</time>
      </trkpt>
      <trkpt lat="48.49196" lon="-3.09645">
        <ele>163.67</ele>
        <time>2014-09-14T09:01:06Z</time>
      </trkpt>
      <trkpt lat="48.49193" lon="-3.09703">
        <ele>168.59</ele>
        <time>2014-09-14T09:01:25Z</time>
      </trkpt>
      <trkpt lat="48.49183" lon="-3.09727">
        <ele>169.17</ele>
        <time>2014-09-14T09:01:42Z</time>
      </trkpt>
      <trkpt lat="48.49161" lon="-3.09805">
        <ele>166.64</ele>
        <time>2014-09-14T09:02:26Z</time>
      </trkpt>
      <trkpt lat="48.49151" lon="-3.09828">
        <ele>165.59</ele>
        <time>2014-09-14T09:02:41Z</time>
      </trkpt>
      <trkpt lat="48.49144" lon="-3.09854">
        <ele>164.86</ele>
        <time>2014-09-14T09:02:54Z</time>
      </trkpt>
      <trkpt lat="48.49142" lon="-3.09939">
        <ele>160.14</ele>
        <time>2014-09-14T09:03:32Z</time>
      </trkpt>
      <trkpt lat="48.49145" lon="-3.09967">
        <ele>156.66</ele>
        <time>2014-09-14T09:03:47Z</time>
      </trkpt>
      <trkpt lat="48.49152" lon="-3.09993">
        <ele>153.09</ele>
        <time>2014-09-14T09:04:02Z</time>
      </trkpt>
      <trkpt lat="48.49155" lon="-3.1005">
        <ele>156.28</ele>
        <time>2014-09-14T09:04:32Z</time>
      </trkpt>
      <trkpt lat="48.49162" lon="-3.10106">
        <ele>155.77</ele>
        <time>2014-09-14T09:05:03Z</time>
      </trkpt>
      <trkpt lat="48.49162" lon="-3.10135">
        <ele>157.2</ele>
        <time>2014-09-14T09:05:17Z</time>
      </trkpt>
      <trkpt lat="48.49159" lon="-3.10163">
        <ele>158.18</ele>
        <time>2014-09-14T09:05:27Z</time>
      </trkpt>
      <trkpt lat="48.49161" lon="-3.10191">
        <ele>159.12</ele>
        <time>2014-09-14T09:05:42Z</time>
      </trkpt>
      <trkpt lat="48.49155" lon="-3.10218">
        <ele>158.89</ele>
        <time>2014-09-14T09:05:54Z</time>
      </trkpt>
      <trkpt lat="48.49157" lon="-3.10248">
        <ele>157.8</ele>
        <time>2014-09-14T09:06:06Z</time>
      </trkpt>
      <trkpt lat="48.4915" lon="-3.10278">
        <ele>156.3</ele>
        <time>2014-09-14T09:06:28Z</time>
      </trkpt>
      <trkpt lat="48.49145" lon="-3.10307">
        <ele>156.52</ele>
        <time>2014-09-14T09:06:40Z</time>
      </trkpt>
      <trkpt lat="48.49126" lon="-3.10362">
        <ele>155.38</ele>
        <time>2014-09-14T09:07:05Z</time>
      </trkpt>
      <trkpt lat="48.49142" lon="-3.10376">
        <ele>153.37</ele>
        <time>2014-09-14T09:07:16Z</time>
      </trkpt>
      <trkpt lat="48.49176" lon="-3.10356">
        <ele>149.56</ele>
        <time>2014-09-14T09:07:49Z</time>
      </trkpt>
      <trkpt lat="48.49194" lon="-3.10349">
        <ele>150.16</ele>
        <time>2014-09-14T09:08:01Z</time>
      </trkpt>
      <trkpt lat="48.49231" lon="-3.1034">
        <ele>154.4</ele>
        <time>2014-09-14T09:08:31Z</time>
      </trkpt>
      <trkpt lat="48.49249" lon="-3.10332">
        <ele>156.34</ele>
        <time>2014-09-14T09:08:44Z</time>
      </trkpt>
      <trkpt lat="48.49324" lon="-3.1031">
        <ele>155.09</ele>
        <time>2014-09-14T09:09:43Z</time>
      </trkpt>
      <trkpt lat="48.49342" lon="-3.103">
        <ele>156.5</ele>
        <time>2014-09-14T09:09:58Z</time>
      </trkpt>
      <trkpt lat="48.4936" lon="-3.10296">
        <ele>158.45</ele>
        <time>2014-09-14T09:10:13Z</time>
      </trkpt>
      <trkpt lat="48.4938" lon="-3.10298">
        <ele>164.08</ele>
        <time>2014-09-14T09:10:38Z</time>
      </trkpt>
      <trkpt lat="48.49402" lon="-3.10293">
        <ele>165.29</ele>
        <time>2014-09-14T09:10:49Z</time>
      </trkpt>
      <trkpt lat="48.49442" lon="-3.10278">
        <ele>162.16</ele>
        <time>2014-09-14T09:10:58Z</time>
      </trkpt>
      <trkpt lat="48.49463" lon="-3.10285">
        <ele>159.32</ele>
        <time>2014-09-14T09:12:00Z</time>
      </trkpt>
      <trkpt lat="48.49481" lon="-3.10299">
        <ele>160.01</ele>
        <time>2014-09-14T09:12:32Z</time>
      </trkpt>
      <trkpt lat="48.49503" lon="-3.10294">
        <ele>160.17</ele>
        <time>2014-09-14T09:12:39Z</time>
      </trkpt>
      <trkpt lat="48.49523" lon="-3.10279">
        <ele>159.99</ele>
        <time>2014-09-14T09:12:56Z</time>
      </trkpt>
      <trkpt lat="48.49606" lon="-3.1033">
        <ele>155.25</ele>
        <time>2014-09-14T09:13:46Z</time>
      </trkpt>
      <trkpt lat="48.49625" lon="-3.10335">
        <ele>152.47</ele>
        <time>2014-09-14T09:13:59Z</time>
      </trkpt>
      <trkpt lat="48.49624" lon="-3.10368">
        <ele>151.26</ele>
        <time>2014-09-14T09:14:14Z</time>
      </trkpt>
      <trkpt lat="48.49611" lon="-3.10388">
        <ele>150.37</ele>
        <time>2014-09-14T09:14:21Z</time>
      </trkpt>
      <trkpt lat="48.49602" lon="-3.10417">
        <ele>150.22</ele>
        <time>2014-09-14T09:14:39Z</time>
      </trkpt>
      <trkpt lat="48.49583" lon="-3.10437">
        <ele>149.7</ele>
        <time>2014-09-14T09:14:57Z</time>
      </trkpt>
      <trkpt lat="48.49565" lon="-3.10448">
        <ele>149.92</ele>
        <time>2014-09-14T09:15:13Z</time>
      </trkpt>
      <trkpt lat="48.49545" lon="-3.10468">
        <ele>150.56</ele>
        <time>2014-09-14T09:15:37Z</time>
      </trkpt>
      <trkpt lat="48.49523" lon="-3.10514">
        <ele>150.94</ele>
        <time>2014-09-14T09:16:07Z</time>
      </trkpt>
      <trkpt lat="48.4951" lon="-3.10532">
        <ele>150.85</ele>
        <time>2014-09-14T09:16:20Z</time>
      </trkpt>
      <trkpt lat="48.49501" lon="-3.1056">
        <ele>149.46</ele>
        <time>2014-09-14T09:16:34Z</time>
      </trkpt>
      <trkpt lat="48.49496" lon="-3.10587">
        <ele>148.54</ele>
        <time>2014-09-14T09:16:49Z</time>
      </trkpt>
      <trkpt lat="48.49484" lon="-3.1061">
        <ele>146.21</ele>
        <time>2014-09-14T09:17:07Z</time>
      </trkpt>
      <trkpt lat="48.49479" lon="-3.10636">
        <ele>142.22</ele>
        <time>2014-09-14T09:17:26Z</time>
      </trkpt>
      <trkpt lat="48.49488" lon="-3.10698">
        <ele>140.82</ele>
        <time>2014-09-14T09:17:50Z</time>
      </trkpt>
      <trkpt lat="48.4949" lon="-3.10725">
        <ele>139.42</ele>
        <time>2014-09-14T09:18:02Z</time>
      </trkpt>
      <trkpt lat="48.49483" lon="-3.10751">
        <ele>138.09</ele>
        <time>2014-09-14T09:18:16Z</time>
      </trkpt>
      <trkpt lat="48.49471" lon="-3.10774">
        <ele>135.64</ele>
        <time>2014-09-14T09:18:31Z</time>
      </trkpt>
      <trkpt lat="48.4948" lon="-3.10859">
        <ele>130.59</ele>
        <time>2014-09-14T09:19:14Z</time>
      </trkpt>
      <trkpt lat="48.49489" lon="-3.10884">
        <ele>133.31</ele>
        <time>2014-09-14T09:19:23Z</time>
      </trkpt>
      <trkpt lat="48.49501" lon="-3.10937">
        <ele>135.84</ele>
        <time>2014-09-14T09:19:45Z</time>
      </trkpt>
      <trkpt lat="48.49505" lon="-3.10964">
        <ele>134.56</ele>
        <time>2014-09-14T09:19:55Z</time>
      </trkpt>
      <trkpt lat="48.49515" lon="-3.10987">
        <ele>134.27</ele>
        <time>2014-09-14T09:20:05Z</time>
      </trkpt>
      <trkpt lat="48.49521" lon="-3.11012">
        <ele>137.12</ele>
        <time>2014-09-14T09:20:17Z</time>
      </trkpt>
    </trkseg>
  </trk>
</gpx>